sensor_id;sensor_type;location;lat;lon;timestamp;P1;durP1;ratioP1;P2;durP2;ratioP2
6947;SDS011;3513;47.664;9.162;2023-11-19T00:01:08;3.10;;;2.20;;
6947;SDS011;3513;47.664;9.162;2023-11-19T00:03:33;3.43;;;2.00;;
6947;SDS011;3513;47.664;9.162;2023-11-19T00:06:00;2.60;;;1.90;;
6947;SDS011;3513;47.664;9.162;2023-11-19T00:08:26;26.80;;;8.17;;
6947;SDS011;3513;47.664;9.162;2023-11-19T00:10:52;2.43;;;1.77;;
6947;SDS011;3513;47.664;9.162;2023-11-19T00:13:17;4.07;;;2.90;;
6947;SDS011;3513;47.664;9.162;2023-11-19T00:15:43;7.13;;;2.90;;
6947;SDS011;3513;47.664;9.162;2023-11-19T00:18:10;4.10;;;2.20;;
6947;SDS011;3513;47.664;9.162;2023-11-19T00:20:35;4.20;;;1.70;;
6947;SDS011;3513;47.664;9.162;2023-11-19T00:23:01;2.83;;;2.50;;
6947;SDS011;3513;47.664;9.162;2023-11-19T00:25:27;1.97;;;1.80;;
6947;SDS011;3513;47.664;9.162;2023-11-19T00:27:53;3.43;;;1.70;;
6947;SDS011;3513;47.664;9.162;2023-11-19T00:30:19;4.90;;;2.07;;
6947;SDS011;3513;47.664;9.162;2023-11-19T00:32:44;5.50;;;2.07;;
6947;SDS011;3513;47.664;9.162;2023-11-19T00:35:10;8.13;;;3.60;;
6947;SDS011;3513;47.664;9.162;2023-11-19T00:37:37;11.03;;;3.53;;
6947;SDS011;3513;47.664;9.162;2023-11-19T00:40:03;4.57;;;2.93;;
6947;SDS011;3513;47.664;9.162;2023-11-19T00:42:30;2.97;;;2.20;;
6947;SDS011;3513;47.664;9.162;2023-11-19T00:44:56;5.60;;;3.33;;
6947;SDS011;3513;47.664;9.162;2023-11-19T00:47:22;5.60;;;2.03;;
6947;SDS011;3513;47.664;9.162;2023-11-19T00:49:48;1.70;;;1.60;;
6947;SDS011;3513;47.664;9.162;2023-11-19T00:52:15;2.70;;;2.03;;
6947;SDS011;3513;47.664;9.162;2023-11-19T00:54:41;9.80;;;2.20;;
6947;SDS011;3513;47.664;9.162;2023-11-19T00:57:07;4.17;;;2.33;;
6947;SDS011;3513;47.664;9.162;2023-11-19T00:59:32;2.50;;;2.30;;
6947;SDS011;3513;47.664;9.162;2023-11-19T01:01:58;7.67;;;5.07;;
6947;SDS011;3513;47.664;9.162;2023-11-19T01:04:28;5.40;;;2.50;;
6947;SDS011;3513;47.664;9.162;2023-11-19T01:07:03;3.73;;;1.83;;
6947;SDS011;3513;47.664;9.162;2023-11-19T01:09:30;2.07;;;1.87;;
6947;SDS011;3513;47.664;9.162;2023-11-19T01:11:59;4.53;;;2.43;;
6947;SDS011;3513;47.664;9.162;2023-11-19T01:14:25;9.00;;;3.73;;
6947;SDS011;3513;47.664;9.162;2023-11-19T01:16:51;2.13;;;1.93;;
6947;SDS011;3513;47.664;9.162;2023-11-19T01:19:18;6.70;;;1.97;;
6947;SDS011;3513;47.664;9.162;2023-11-19T01:21:44;4.83;;;2.10;;
6947;SDS011;3513;47.664;9.162;2023-11-19T01:24:10;6.07;;;2.47;;
6947;SDS011;3513;47.664;9.162;2023-11-19T01:26:38;3.47;;;2.00;;
6947;SDS011;3513;47.664;9.162;2023-11-19T01:29:03;2.37;;;2.17;;
6947;SDS011;3513;47.664;9.162;2023-11-19T01:31:29;4.33;;;2.80;;
6947;SDS011;3513;47.664;9.162;2023-11-19T01:33:56;3.67;;;2.10;;
6947;SDS011;3513;47.664;9.162;2023-11-19T01:36:22;3.60;;;2.63;;
6947;SDS011;3513;47.664;9.162;2023-11-19T01:38:48;3.93;;;1.90;;
6947;SDS011;3513;47.664;9.162;2023-11-19T01:41:15;5.40;;;1.90;;
6947;SDS011;3513;47.664;9.162;2023-11-19T01:43:40;6.93;;;2.77;;
6947;SDS011;3513;47.664;9.162;2023-11-19T01:46:12;4.83;;;2.20;;
6947;SDS011;3513;47.664;9.162;2023-11-19T01:48:40;7.77;;;1.83;;
6947;SDS011;3513;47.664;9.162;2023-11-19T01:51:08;17.63;;;2.73;;
6947;SDS011;3513;47.664;9.162;2023-11-19T01:53:34;4.87;;;1.47;;
6947;SDS011;3513;47.664;9.162;2023-11-19T01:56:03;2.00;;;1.90;;
6947;SDS011;3513;47.664;9.162;2023-11-19T01:58:33;4.77;;;2.37;;
6947;SDS011;3513;47.664;9.162;2023-11-19T02:01:00;5.57;;;2.07;;
6947;SDS011;3513;47.664;9.162;2023-11-19T02:03:28;3.60;;;2.33;;
6947;SDS011;3513;47.664;9.162;2023-11-19T02:05:57;2.83;;;2.13;;
6947;SDS011;3513;47.664;9.162;2023-11-19T02:08:23;4.70;;;2.20;;
6947;SDS011;3513;47.664;9.162;2023-11-19T02:10:49;13.27;;;1.77;;
6947;SDS011;3513;47.664;9.162;2023-11-19T02:13:14;6.37;;;2.80;;
6947;SDS011;3513;47.664;9.162;2023-11-19T02:15:41;2.03;;;1.83;;
6947;SDS011;3513;47.664;9.162;2023-11-19T02:18:28;6.70;;;2.03;;
6947;SDS011;3513;47.664;9.162;2023-11-19T02:20:55;3.77;;;2.23;;
6947;SDS011;3513;47.664;9.162;2023-11-19T02:23:25;2.87;;;2.37;;
6947;SDS011;3513;47.664;9.162;2023-11-19T02:28:41;3.10;;;2.27;;
6947;SDS011;3513;47.664;9.162;2023-11-19T02:31:08;3.23;;;2.20;;
6947;SDS011;3513;47.664;9.162;2023-11-19T02:33:34;3.50;;;2.50;;
6947;SDS011;3513;47.664;9.162;2023-11-19T02:36:01;2.50;;;2.03;;
6947;SDS011;3513;47.664;9.162;2023-11-19T02:38:28;2.87;;;2.57;;
6947;SDS011;3513;47.664;9.162;2023-11-19T02:40:55;5.10;;;2.57;;
6947;SDS011;3513;47.664;9.162;2023-11-19T02:43:21;3.90;;;2.53;;
6947;SDS011;3513;47.664;9.162;2023-11-19T02:45:47;4.17;;;2.43;;
6947;SDS011;3513;47.664;9.162;2023-11-19T02:48:13;6.83;;;3.13;;
6947;SDS011;3513;47.664;9.162;2023-11-19T02:50:40;4.07;;;2.60;;
6947;SDS011;3513;47.664;9.162;2023-11-19T02:53:09;7.73;;;3.57;;
6947;SDS011;3513;47.664;9.162;2023-11-19T02:55:35;4.87;;;3.00;;
6947;SDS011;3513;47.664;9.162;2023-11-19T02:58:03;6.17;;;3.07;;
6947;SDS011;3513;47.664;9.162;2023-11-19T03:00:35;3.97;;;2.60;;
6947;SDS011;3513;47.664;9.162;2023-11-19T03:03:03;3.93;;;2.37;;
6947;SDS011;3513;47.664;9.162;2023-11-19T03:05:45;3.17;;;2.27;;
6947;SDS011;3513;47.664;9.162;2023-11-19T03:08:11;3.70;;;2.37;;
6947;SDS011;3513;47.664;9.162;2023-11-19T03:10:37;4.63;;;3.37;;
6947;SDS011;3513;47.664;9.162;2023-11-19T03:13:03;3.40;;;2.53;;
6947;SDS011;3513;47.664;9.162;2023-11-19T03:15:29;2.27;;;2.07;;
6947;SDS011;3513;47.664;9.162;2023-11-19T03:17:55;7.23;;;2.90;;
6947;SDS011;3513;47.664;9.162;2023-11-19T03:20:20;9.00;;;2.60;;
6947;SDS011;3513;47.664;9.162;2023-11-19T03:22:46;5.87;;;3.77;;
6947;SDS011;3513;47.664;9.162;2023-11-19T03:25:11;5.37;;;3.40;;
6947;SDS011;3513;47.664;9.162;2023-11-19T03:27:38;7.83;;;3.70;;
6947;SDS011;3513;47.664;9.162;2023-11-19T03:30:13;4.37;;;3.33;;
6947;SDS011;3513;47.664;9.162;2023-11-19T03:32:39;4.40;;;3.40;;
6947;SDS011;3513;47.664;9.162;2023-11-19T03:35:05;4.90;;;4.00;;
6947;SDS011;3513;47.664;9.162;2023-11-19T03:37:34;6.30;;;3.47;;
6947;SDS011;3513;47.664;9.162;2023-11-19T03:40:00;11.33;;;3.63;;
6947;SDS011;3513;47.664;9.162;2023-11-19T03:42:26;10.53;;;4.57;;
6947;SDS011;3513;47.664;9.162;2023-11-19T03:44:52;3.80;;;2.60;;
6947;SDS011;3513;47.664;9.162;2023-11-19T03:47:18;6.80;;;2.20;;
6947;SDS011;3513;47.664;9.162;2023-11-19T03:49:50;5.40;;;3.10;;
6947;SDS011;3513;47.664;9.162;2023-11-19T03:52:16;5.00;;;3.60;;
6947;SDS011;3513;47.664;9.162;2023-11-19T03:54:43;3.33;;;2.70;;
6947;SDS011;3513;47.664;9.162;2023-11-19T03:57:08;6.50;;;2.60;;
6947;SDS011;3513;47.664;9.162;2023-11-19T03:59:37;4.57;;;2.87;;
6947;SDS011;3513;47.664;9.162;2023-11-19T04:02:03;8.57;;;3.10;;
6947;SDS011;3513;47.664;9.162;2023-11-19T04:04:29;9.67;;;2.90;;
6947;SDS011;3513;47.664;9.162;2023-11-19T04:06:54;3.33;;;2.10;;
6947;SDS011;3513;47.664;9.162;2023-11-19T04:09:20;4.07;;;1.80;;
6947;SDS011;3513;47.664;9.162;2023-11-19T04:11:47;4.27;;;2.60;;
6947;SDS011;3513;47.664;9.162;2023-11-19T04:14:13;2.60;;;2.00;;
6947;SDS011;3513;47.664;9.162;2023-11-19T04:16:39;2.40;;;1.90;;
6947;SDS011;3513;47.664;9.162;2023-11-19T04:19:05;2.83;;;1.97;;
6947;SDS011;3513;47.664;9.162;2023-11-19T04:21:31;4.50;;;3.17;;
6947;SDS011;3513;47.664;9.162;2023-11-19T04:23:57;4.60;;;2.77;;
6947;SDS011;3513;47.664;9.162;2023-11-19T04:26:23;13.97;;;6.73;;
6947;SDS011;3513;47.664;9.162;2023-11-19T04:28:48;8.33;;;4.23;;
6947;SDS011;3513;47.664;9.162;2023-11-19T04:31:17;5.97;;;3.70;;
6947;SDS011;3513;47.664;9.162;2023-11-19T04:33:42;3.57;;;2.60;;
6947;SDS011;3513;47.664;9.162;2023-11-19T04:36:09;3.23;;;2.40;;
6947;SDS011;3513;47.664;9.162;2023-11-19T04:38:35;6.27;;;3.10;;
6947;SDS011;3513;47.664;9.162;2023-11-19T04:41:00;6.07;;;2.90;;
6947;SDS011;3513;47.664;9.162;2023-11-19T04:43:26;5.03;;;2.67;;
6947;SDS011;3513;47.664;9.162;2023-11-19T04:45:52;6.93;;;3.00;;
6947;SDS011;3513;47.664;9.162;2023-11-19T04:48:17;2.40;;;2.20;;
6947;SDS011;3513;47.664;9.162;2023-11-19T04:50:43;8.03;;;2.60;;
6947;SDS011;3513;47.664;9.162;2023-11-19T04:53:09;3.40;;;3.00;;
6947;SDS011;3513;47.664;9.162;2023-11-19T04:55:35;4.27;;;3.43;;
6947;SDS011;3513;47.664;9.162;2023-11-19T04:58:00;5.17;;;3.10;;
6947;SDS011;3513;47.664;9.162;2023-11-19T05:00:26;5.57;;;3.13;;
6947;SDS011;3513;47.664;9.162;2023-11-19T05:02:51;5.47;;;2.87;;
6947;SDS011;3513;47.664;9.162;2023-11-19T05:05:17;4.37;;;2.90;;
6947;SDS011;3513;47.664;9.162;2023-11-19T05:07:43;4.33;;;3.40;;
6947;SDS011;3513;47.664;9.162;2023-11-19T05:10:09;5.30;;;3.57;;
6947;SDS011;3513;47.664;9.162;2023-11-19T05:12:34;9.00;;;3.90;;
6947;SDS011;3513;47.664;9.162;2023-11-19T05:15:00;14.73;;;5.80;;
6947;SDS011;3513;47.664;9.162;2023-11-19T05:17:26;15.20;;;6.00;;
6947;SDS011;3513;47.664;9.162;2023-11-19T05:19:51;10.40;;;4.67;;
6947;SDS011;3513;47.664;9.162;2023-11-19T05:22:17;7.27;;;4.57;;
6947;SDS011;3513;47.664;9.162;2023-11-19T05:24:43;7.57;;;3.80;;
6947;SDS011;3513;47.664;9.162;2023-11-19T05:27:09;8.47;;;3.00;;
6947;SDS011;3513;47.664;9.162;2023-11-19T05:29:36;3.63;;;3.10;;
6947;SDS011;3513;47.664;9.162;2023-11-19T05:32:04;3.93;;;3.03;;
6947;SDS011;3513;47.664;9.162;2023-11-19T05:34:30;3.53;;;3.03;;
6947;SDS011;3513;47.664;9.162;2023-11-19T05:36:55;4.70;;;3.30;;
6947;SDS011;3513;47.664;9.162;2023-11-19T05:39:22;4.57;;;2.80;;
6947;SDS011;3513;47.664;9.162;2023-11-19T05:41:47;3.43;;;2.73;;
6947;SDS011;3513;47.664;9.162;2023-11-19T05:44:13;8.13;;;2.50;;
6947;SDS011;3513;47.664;9.162;2023-11-19T05:46:39;3.07;;;2.60;;
6947;SDS011;3513;47.664;9.162;2023-11-19T05:49:07;2.73;;;2.53;;
6947;SDS011;3513;47.664;9.162;2023-11-19T05:51:36;2.53;;;2.33;;
6947;SDS011;3513;47.664;9.162;2023-11-19T05:54:03;3.50;;;2.37;;
6947;SDS011;3513;47.664;9.162;2023-11-19T05:56:31;5.07;;;2.53;;
6947;SDS011;3513;47.664;9.162;2023-11-19T05:58:57;2.20;;;1.90;;
6947;SDS011;3513;47.664;9.162;2023-11-19T06:01:26;3.20;;;2.50;;
6947;SDS011;3513;47.664;9.162;2023-11-19T06:03:51;2.30;;;2.10;;
6947;SDS011;3513;47.664;9.162;2023-11-19T06:06:18;2.70;;;2.50;;
6947;SDS011;3513;47.664;9.162;2023-11-19T06:08:43;3.20;;;2.10;;
6947;SDS011;3513;47.664;9.162;2023-11-19T06:11:09;1.60;;;1.50;;
6947;SDS011;3513;47.664;9.162;2023-11-19T06:13:39;2.60;;;1.70;;
6947;SDS011;3513;47.664;9.162;2023-11-19T06:16:05;4.00;;;2.47;;
6947;SDS011;3513;47.664;9.162;2023-11-19T06:18:31;5.90;;;2.93;;
6947;SDS011;3513;47.664;9.162;2023-11-19T06:20:57;3.77;;;2.10;;
6947;SDS011;3513;47.664;9.162;2023-11-19T06:23:22;18.23;;;6.50;;
6947;SDS011;3513;47.664;9.162;2023-11-19T06:25:48;2.83;;;1.97;;
6947;SDS011;3513;47.664;9.162;2023-11-19T06:28:13;2.43;;;2.23;;
6947;SDS011;3513;47.664;9.162;2023-11-19T06:30:39;4.20;;;2.23;;
6947;SDS011;3513;47.664;9.162;2023-11-19T06:33:06;4.73;;;2.27;;
6947;SDS011;3513;47.664;9.162;2023-11-19T06:35:32;3.13;;;2.30;;
6947;SDS011;3513;47.664;9.162;2023-11-19T06:38:01;3.57;;;2.03;;
6947;SDS011;3513;47.664;9.162;2023-11-19T06:40:28;2.23;;;2.03;;
6947;SDS011;3513;47.664;9.162;2023-11-19T06:42:54;2.30;;;2.10;;
6947;SDS011;3513;47.664;9.162;2023-11-19T06:45:20;1.97;;;1.80;;
6947;SDS011;3513;47.664;9.162;2023-11-19T06:47:45;3.67;;;2.03;;
6947;SDS011;3513;47.664;9.162;2023-11-19T06:50:11;2.33;;;1.83;;
6947;SDS011;3513;47.664;9.162;2023-11-19T06:52:37;3.60;;;2.00;;
6947;SDS011;3513;47.664;9.162;2023-11-19T06:55:03;2.63;;;1.70;;
6947;SDS011;3513;47.664;9.162;2023-11-19T06:57:29;3.83;;;1.90;;
6947;SDS011;3513;47.664;9.162;2023-11-19T06:59:57;1.80;;;1.63;;
6947;SDS011;3513;47.664;9.162;2023-11-19T07:02:23;1.77;;;1.67;;
6947;SDS011;3513;47.664;9.162;2023-11-19T07:04:49;3.60;;;2.30;;
6947;SDS011;3513;47.664;9.162;2023-11-19T07:07:15;2.10;;;1.90;;
6947;SDS011;3513;47.664;9.162;2023-11-19T07:09:40;2.50;;;1.60;;
6947;SDS011;3513;47.664;9.162;2023-11-19T07:12:06;3.80;;;1.80;;
6947;SDS011;3513;47.664;9.162;2023-11-19T07:14:32;1.83;;;1.67;;
6947;SDS011;3513;47.664;9.162;2023-11-19T07:16:57;4.57;;;2.00;;
6947;SDS011;3513;47.664;9.162;2023-11-19T07:19:23;4.10;;;1.53;;
6947;SDS011;3513;47.664;9.162;2023-11-19T07:21:48;2.70;;;1.57;;
6947;SDS011;3513;47.664;9.162;2023-11-19T07:24:14;2.23;;;1.60;;
6947;SDS011;3513;47.664;9.162;2023-11-19T07:26:43;1.60;;;1.50;;
6947;SDS011;3513;47.664;9.162;2023-11-19T07:29:10;2.60;;;1.93;;
6947;SDS011;3513;47.664;9.162;2023-11-19T07:31:36;4.10;;;1.63;;
6947;SDS011;3513;47.664;9.162;2023-11-19T07:34:02;3.60;;;1.70;;
6947;SDS011;3513;47.664;9.162;2023-11-19T07:36:28;1.53;;;1.43;;
6947;SDS011;3513;47.664;9.162;2023-11-19T07:38:54;1.60;;;1.50;;
6947;SDS011;3513;47.664;9.162;2023-11-19T07:41:22;2.37;;;1.40;;
6947;SDS011;3513;47.664;9.162;2023-11-19T07:43:48;6.93;;;1.60;;
6947;SDS011;3513;47.664;9.162;2023-11-19T07:46:14;2.33;;;1.87;;
6947;SDS011;3513;47.664;9.162;2023-11-19T07:48:40;1.83;;;1.67;;
6947;SDS011;3513;47.664;9.162;2023-11-19T07:51:07;2.90;;;1.60;;
6947;SDS011;3513;47.664;9.162;2023-11-19T07:53:32;4.33;;;2.80;;
6947;SDS011;3513;47.664;9.162;2023-11-19T07:55:58;5.00;;;2.20;;
6947;SDS011;3513;47.664;9.162;2023-11-19T07:58:27;2.43;;;1.63;;
6947;SDS011;3513;47.664;9.162;2023-11-19T08:00:53;1.80;;;1.70;;
6947;SDS011;3513;47.664;9.162;2023-11-19T08:03:18;2.93;;;1.40;;
6947;SDS011;3513;47.664;9.162;2023-11-19T08:05:44;6.50;;;1.70;;
6947;SDS011;3513;47.664;9.162;2023-11-19T08:08:11;4.33;;;1.97;;
6947;SDS011;3513;47.664;9.162;2023-11-19T08:10:37;5.83;;;1.80;;
6947;SDS011;3513;47.664;9.162;2023-11-19T08:13:02;5.43;;;3.60;;
6947;SDS011;3513;47.664;9.162;2023-11-19T08:15:28;1.60;;;1.40;;
6947;SDS011;3513;47.664;9.162;2023-11-19T08:17:54;4.33;;;2.00;;
6947;SDS011;3513;47.664;9.162;2023-11-19T08:20:19;4.30;;;1.30;;
6947;SDS011;3513;47.664;9.162;2023-11-19T08:22:45;2.33;;;2.10;;
6947;SDS011;3513;47.664;9.162;2023-11-19T08:25:10;5.17;;;1.50;;
6947;SDS011;3513;47.664;9.162;2023-11-19T08:27:36;2.10;;;1.40;;
6947;SDS011;3513;47.664;9.162;2023-11-19T08:30:01;1.40;;;1.30;;
6947;SDS011;3513;47.664;9.162;2023-11-19T08:32:27;1.40;;;1.30;;
6947;SDS011;3513;47.664;9.162;2023-11-19T08:34:53;2.37;;;1.60;;
6947;SDS011;3513;47.664;9.162;2023-11-19T08:37:19;2.10;;;1.43;;
6947;SDS011;3513;47.664;9.162;2023-11-19T08:39:46;1.53;;;1.30;;
6947;SDS011;3513;47.664;9.162;2023-11-19T08:42:12;2.30;;;1.40;;
6947;SDS011;3513;47.664;9.162;2023-11-19T08:44:38;2.50;;;1.33;;
6947;SDS011;3513;47.664;9.162;2023-11-19T08:47:04;1.30;;;1.23;;
6947;SDS011;3513;47.664;9.162;2023-11-19T08:49:30;1.33;;;0.90;;
6947;SDS011;3513;47.664;9.162;2023-11-19T08:51:55;7.50;;;1.67;;
6947;SDS011;3513;47.664;9.162;2023-11-19T08:54:21;3.67;;;1.60;;
6947;SDS011;3513;47.664;9.162;2023-11-19T08:56:48;2.10;;;1.80;;
6947;SDS011;3513;47.664;9.162;2023-11-19T08:59:13;1.63;;;1.27;;
6947;SDS011;3513;47.664;9.162;2023-11-19T09:01:40;1.73;;;1.10;;
6947;SDS011;3513;47.664;9.162;2023-11-19T09:04:08;1.77;;;1.20;;
6947;SDS011;3513;47.664;9.162;2023-11-19T09:06:35;1.33;;;1.10;;
6947;SDS011;3513;47.664;9.162;2023-11-19T09:09:01;0.97;;;0.97;;
6947;SDS011;3513;47.664;9.162;2023-11-19T09:11:28;1.53;;;1.03;;
6947;SDS011;3513;47.664;9.162;2023-11-19T09:13:54;3.70;;;1.13;;
6947;SDS011;3513;47.664;9.162;2023-11-19T09:16:20;3.80;;;1.47;;
6947;SDS011;3513;47.664;9.162;2023-11-19T09:18:45;1.73;;;1.20;;
6947;SDS011;3513;47.664;9.162;2023-11-19T09:21:11;2.00;;;1.13;;
6947;SDS011;3513;47.664;9.162;2023-11-19T09:23:37;2.10;;;1.33;;
6947;SDS011;3513;47.664;9.162;2023-11-19T09:26:04;2.27;;;1.00;;
6947;SDS011;3513;47.664;9.162;2023-11-19T09:28:31;1.43;;;1.13;;
6947;SDS011;3513;47.664;9.162;2023-11-19T09:30:57;3.30;;;1.40;;
6947;SDS011;3513;47.664;9.162;2023-11-19T09:33:24;1.47;;;0.97;;
6947;SDS011;3513;47.664;9.162;2023-11-19T09:35:49;0.90;;;0.90;;
6947;SDS011;3513;47.664;9.162;2023-11-19T09:38:15;2.23;;;1.13;;
6947;SDS011;3513;47.664;9.162;2023-11-19T09:40:41;2.20;;;0.97;;
6947;SDS011;3513;47.664;9.162;2023-11-19T09:43:07;6.10;;;1.30;;
6947;SDS011;3513;47.664;9.162;2023-11-19T09:45:39;1.63;;;1.53;;
6947;SDS011;3513;47.664;9.162;2023-11-19T09:48:18;3.37;;;1.13;;
6947;SDS011;3513;47.664;9.162;2023-11-19T09:50:45;1.17;;;1.00;;
6947;SDS011;3513;47.664;9.162;2023-11-19T09:53:12;3.33;;;1.10;;
6947;SDS011;3513;47.664;9.162;2023-11-19T09:55:38;0.93;;;0.80;;
6947;SDS011;3513;47.664;9.162;2023-11-19T09:58:04;2.00;;;1.00;;
6947;SDS011;3513;47.664;9.162;2023-11-19T10:00:31;3.83;;;0.87;;
6947;SDS011;3513;47.664;9.162;2023-11-19T10:02:57;2.63;;;1.00;;
6947;SDS011;3513;47.664;9.162;2023-11-19T10:05:24;4.70;;;0.90;;
6947;SDS011;3513;47.664;9.162;2023-11-19T10:07:51;1.17;;;1.03;;
6947;SDS011;3513;47.664;9.162;2023-11-19T10:10:20;2.90;;;1.10;;
6947;SDS011;3513;47.664;9.162;2023-11-19T10:12:46;14.43;;;1.27;;
6947;SDS011;3513;47.664;9.162;2023-11-19T10:15:21;1.20;;;1.10;;
6947;SDS011;3513;47.664;9.162;2023-11-19T10:17:49;2.60;;;1.10;;
6947;SDS011;3513;47.664;9.162;2023-11-19T10:20:15;2.70;;;1.43;;
6947;SDS011;3513;47.664;9.162;2023-11-19T10:22:40;3.07;;;1.30;;
6947;SDS011;3513;47.664;9.162;2023-11-19T10:25:22;2.63;;;1.50;;
6947;SDS011;3513;47.664;9.162;2023-11-19T10:27:52;1.20;;;1.10;;
6947;SDS011;3513;47.664;9.162;2023-11-19T10:30:23;1.27;;;1.17;;
6947;SDS011;3513;47.664;9.162;2023-11-19T10:35:57;2.77;;;1.27;;
6947;SDS011;3513;47.664;9.162;2023-11-19T10:38:23;2.33;;;1.23;;
6947;SDS011;3513;47.664;9.162;2023-11-19T10:40:50;7.83;;;1.10;;
6947;SDS011;3513;47.664;9.162;2023-11-19T10:43:16;1.10;;;1.00;;
6947;SDS011;3513;47.664;9.162;2023-11-19T10:45:42;3.60;;;1.40;;
6947;SDS011;3513;47.664;9.162;2023-11-19T10:48:08;1.07;;;0.97;;
6947;SDS011;3513;47.664;9.162;2023-11-19T10:50:35;2.47;;;1.50;;
6947;SDS011;3513;47.664;9.162;2023-11-19T10:53:01;3.30;;;2.20;;
6947;SDS011;3513;47.664;9.162;2023-11-19T10:55:32;1.30;;;1.00;;
6947;SDS011;3513;47.664;9.162;2023-11-19T10:58:04;1.20;;;1.10;;
6947;SDS011;3513;47.664;9.162;2023-11-19T11:03:24;1.10;;;0.90;;
6947;SDS011;3513;47.664;9.162;2023-11-19T11:05:51;1.27;;;1.10;;
6947;SDS011;3513;47.664;9.162;2023-11-19T11:08:18;10.30;;;1.97;;
6947;SDS011;3513;47.664;9.162;2023-11-19T11:13:13;1.10;;;1.00;;
6947;SDS011;3513;47.664;9.162;2023-11-19T11:15:39;2.13;;;1.00;;
6947;SDS011;3513;47.664;9.162;2023-11-19T11:18:08;3.00;;;1.47;;
6947;SDS011;3513;47.664;9.162;2023-11-19T11:20:34;1.27;;;1.17;;
6947;SDS011;3513;47.664;9.162;2023-11-19T11:28:43;2.13;;;1.07;;
6947;SDS011;3513;47.664;9.162;2023-11-19T11:39:41;1.00;;;0.90;;
6947;SDS011;3513;47.664;9.162;2023-11-19T11:50:08;1.13;;;0.90;;
6947;SDS011;3513;47.664;9.162;2023-11-19T11:57:53;2.20;;;0.77;;
6947;SDS011;3513;47.664;9.162;2023-11-19T12:02:57;0.90;;;0.80;;
6947;SDS011;3513;47.664;9.162;2023-11-19T12:05:25;2.23;;;1.07;;
6947;SDS011;3513;47.664;9.162;2023-11-19T12:07:55;1.60;;;1.20;;
6947;SDS011;3513;47.664;9.162;2023-11-19T12:10:32;1.10;;;0.90;;
6947;SDS011;3513;47.664;9.162;2023-11-19T12:13:04;1.33;;;1.23;;
6947;SDS011;3513;47.664;9.162;2023-11-19T12:15:32;3.27;;;0.83;;
6947;SDS011;3513;47.664;9.162;2023-11-19T12:17:57;1.37;;;1.27;;
6947;SDS011;3513;47.664;9.162;2023-11-19T12:20:24;2.23;;;1.07;;
6947;SDS011;3513;47.664;9.162;2023-11-19T12:22:51;1.23;;;0.90;;
6947;SDS011;3513;47.664;9.162;2023-11-19T12:25:18;1.23;;;1.13;;
6947;SDS011;3513;47.664;9.162;2023-11-19T12:27:49;2.00;;;1.30;;
6947;SDS011;3513;47.664;9.162;2023-11-19T12:30:26;1.40;;;1.30;;
6947;SDS011;3513;47.664;9.162;2023-11-19T12:32:54;1.73;;;1.10;;
6947;SDS011;3513;47.664;9.162;2023-11-19T12:35:19;1.37;;;1.10;;
6947;SDS011;3513;47.664;9.162;2023-11-19T12:37:46;2.07;;;1.07;;
6947;SDS011;3513;47.664;9.162;2023-11-19T12:40:13;1.80;;;1.70;;
6947;SDS011;3513;47.664;9.162;2023-11-19T12:42:44;1.53;;;1.30;;
6947;SDS011;3513;47.664;9.162;2023-11-19T12:45:10;3.10;;;1.20;;
6947;SDS011;3513;47.664;9.162;2023-11-19T12:47:36;1.73;;;0.90;;
6947;SDS011;3513;47.664;9.162;2023-11-19T12:50:02;2.03;;;1.30;;
6947;SDS011;3513;47.664;9.162;2023-11-19T12:52:29;1.93;;;1.57;;
6947;SDS011;3513;47.664;9.162;2023-11-19T12:54:55;1.20;;;1.10;;
6947;SDS011;3513;47.664;9.162;2023-11-19T12:57:20;3.93;;;1.60;;
6947;SDS011;3513;47.664;9.162;2023-11-19T13:00:00;2.20;;;1.60;;
6947;SDS011;3513;47.664;9.162;2023-11-19T13:02:44;3.27;;;1.07;;
6947;SDS011;3513;47.664;9.162;2023-11-19T13:05:29;2.07;;;1.17;;
6947;SDS011;3513;47.664;9.162;2023-11-19T13:08:01;2.07;;;1.30;;
6947;SDS011;3513;47.664;9.162;2023-11-19T13:10:29;2.27;;;1.30;;
6947;SDS011;3513;47.664;9.162;2023-11-19T13:13:03;5.40;;;1.40;;
6947;SDS011;3513;47.664;9.162;2023-11-19T13:15:30;2.17;;;1.07;;
6947;SDS011;3513;47.664;9.162;2023-11-19T13:17:57;3.33;;;1.17;;
6947;SDS011;3513;47.664;9.162;2023-11-19T13:20:23;1.30;;;1.20;;
6947;SDS011;3513;47.664;9.162;2023-11-19T13:22:55;8.23;;;0.93;;
6947;SDS011;3513;47.664;9.162;2023-11-19T13:25:22;1.73;;;1.53;;
6947;SDS011;3513;47.664;9.162;2023-11-19T13:27:47;1.93;;;1.40;;
6947;SDS011;3513;47.664;9.162;2023-11-19T13:30:13;2.80;;;1.60;;
6947;SDS011;3513;47.664;9.162;2023-11-19T13:32:39;1.90;;;0.90;;
6947;SDS011;3513;47.664;9.162;2023-11-19T13:35:05;1.47;;;1.03;;
6947;SDS011;3513;47.664;9.162;2023-11-19T13:37:33;1.83;;;1.53;;
6947;SDS011;3513;47.664;9.162;2023-11-19T13:39:59;2.30;;;1.40;;
6947;SDS011;3513;47.664;9.162;2023-11-19T13:42:25;1.73;;;0.90;;
6947;SDS011;3513;47.664;9.162;2023-11-19T13:44:50;2.67;;;1.70;;
6947;SDS011;3513;47.664;9.162;2023-11-19T13:47:16;2.47;;;1.20;;
6947;SDS011;3513;47.664;9.162;2023-11-19T13:49:41;1.30;;;1.03;;
6947;SDS011;3513;47.664;9.162;2023-11-19T13:52:09;1.37;;;1.27;;
6947;SDS011;3513;47.664;9.162;2023-11-19T13:54:36;1.43;;;1.10;;
6947;SDS011;3513;47.664;9.162;2023-11-19T13:57:02;2.60;;;1.50;;
6947;SDS011;3513;47.664;9.162;2023-11-19T13:59:29;3.00;;;0.97;;
6947;SDS011;3513;47.664;9.162;2023-11-19T14:01:58;1.67;;;1.30;;
6947;SDS011;3513;47.664;9.162;2023-11-19T14:04:24;4.60;;;1.43;;
6947;SDS011;3513;47.664;9.162;2023-11-19T14:06:50;1.83;;;1.33;;
6947;SDS011;3513;47.664;9.162;2023-11-19T14:09:16;2.63;;;1.20;;
6947;SDS011;3513;47.664;9.162;2023-11-19T14:11:42;3.13;;;1.03;;
6947;SDS011;3513;47.664;9.162;2023-11-19T14:14:08;2.70;;;1.23;;
6947;SDS011;3513;47.664;9.162;2023-11-19T14:16:33;5.30;;;1.47;;
6947;SDS011;3513;47.664;9.162;2023-11-19T14:18:59;1.30;;;1.20;;
6947;SDS011;3513;47.664;9.162;2023-11-19T14:21:25;3.47;;;1.40;;
6947;SDS011;3513;47.664;9.162;2023-11-19T14:23:51;1.30;;;1.20;;
6947;SDS011;3513;47.664;9.162;2023-11-19T14:26:17;13.50;;;1.30;;
6947;SDS011;3513;47.664;9.162;2023-11-19T14:28:43;5.40;;;1.30;;
6947;SDS011;3513;47.664;9.162;2023-11-19T14:31:08;4.37;;;1.50;;
6947;SDS011;3513;47.664;9.162;2023-11-19T14:33:34;5.23;;;1.10;;
6947;SDS011;3513;47.664;9.162;2023-11-19T14:36:01;0.93;;;0.73;;
6947;SDS011;3513;47.664;9.162;2023-11-19T14:38:26;3.00;;;1.10;;
6947;SDS011;3513;47.664;9.162;2023-11-19T14:40:52;3.93;;;1.60;;
6947;SDS011;3513;47.664;9.162;2023-11-19T14:43:18;1.87;;;1.47;;
6947;SDS011;3513;47.664;9.162;2023-11-19T14:45:43;4.60;;;1.33;;
6947;SDS011;3513;47.664;9.162;2023-11-19T14:48:09;1.13;;;1.00;;
6947;SDS011;3513;47.664;9.162;2023-11-19T14:50:35;1.63;;;1.47;;
6947;SDS011;3513;47.664;9.162;2023-11-19T14:53:01;1.07;;;1.00;;
6947;SDS011;3513;47.664;9.162;2023-11-19T14:55:27;1.20;;;1.10;;
6947;SDS011;3513;47.664;9.162;2023-11-19T14:57:52;1.13;;;1.03;;
6947;SDS011;3513;47.664;9.162;2023-11-19T15:00:18;1.57;;;1.10;;
6947;SDS011;3513;47.664;9.162;2023-11-19T15:02:44;2.10;;;1.20;;
6947;SDS011;3513;47.664;9.162;2023-11-19T15:05:10;1.67;;;1.33;;
6947;SDS011;3513;47.664;9.162;2023-11-19T15:07:38;2.03;;;1.20;;
6947;SDS011;3513;47.664;9.162;2023-11-19T15:10:05;2.73;;;1.20;;
6947;SDS011;3513;47.664;9.162;2023-11-19T15:12:38;2.27;;;1.40;;
6947;SDS011;3513;47.664;9.162;2023-11-19T15:15:08;0.97;;;0.87;;
6947;SDS011;3513;47.664;9.162;2023-11-19T15:17:34;1.50;;;1.00;;
6947;SDS011;3513;47.664;9.162;2023-11-19T15:20:01;2.37;;;1.20;;
6947;SDS011;3513;47.664;9.162;2023-11-19T15:22:28;1.20;;;1.10;;
6947;SDS011;3513;47.664;9.162;2023-11-19T15:24:53;1.83;;;1.20;;
6947;SDS011;3513;47.664;9.162;2023-11-19T15:27:19;1.50;;;1.07;;
6947;SDS011;3513;47.664;9.162;2023-11-19T15:29:44;4.93;;;1.77;;
6947;SDS011;3513;47.664;9.162;2023-11-19T15:32:10;1.73;;;1.33;;
6947;SDS011;3513;47.664;9.162;2023-11-19T15:34:36;1.50;;;1.20;;
6947;SDS011;3513;47.664;9.162;2023-11-19T15:37:03;1.37;;;1.27;;
6947;SDS011;3513;47.664;9.162;2023-11-19T15:39:29;1.77;;;1.10;;
6947;SDS011;3513;47.664;9.162;2023-11-19T15:41:57;1.87;;;1.50;;
6947;SDS011;3513;47.664;9.162;2023-11-19T15:44:24;1.23;;;0.97;;
6947;SDS011;3513;47.664;9.162;2023-11-19T15:46:50;1.83;;;1.47;;
6947;SDS011;3513;47.664;9.162;2023-11-19T15:49:16;2.80;;;1.40;;
6947;SDS011;3513;47.664;9.162;2023-11-19T15:51:41;2.60;;;1.57;;
6947;SDS011;3513;47.664;9.162;2023-11-19T15:54:07;6.63;;;1.63;;